Time;durP1;ratioP1;P1;durP2;ratioP2;P2;SDS_P1;SDS_P2;PMS_P1;PMS_P2;Temp;Humidity;BMP_temperature;BMP_pressure;BME280_temperature;BME280_humidity;BME280_pressure;Samples;Min_cycle;Max_cycle;Signal;HPM_P1;HPM_P2
2023/03/29 00:00:35;;;;;;;6.18;4.82;;;;;;;;;;5003244;28;20027;-79
2023/03/29 00:03:02;;;;;;;5.63;4.88;;;;;;;;;;5008677;28;20558;-80
2023/03/29 00:05:32;;;;;;;5.57;5.05;;;;;;;;;;4990920;28;20033;-80
2023/03/29 00:08:00;;;;;;;6.47;5.88;;;;;;;;;;5011578;28;20544;-81
2023/03/29 00:10:26;;;;;;;5.50;4.93;;;;;;;;;;5003192;28;20029;-81
2023/03/29 00:12:52;;;;;;;6.50;5.35;;;;;;;;;;5023571;28;20022;-81
2023/03/29 00:15:17;;;;;;;13.07;7.43;;;;;;;;;;5023677;28;20064;-80
2023/03/29 00:17:44;;;;;;;8.52;7.13;;;;;;;;;;5016370;28;20057;-79
2023/03/29 00:20:11;;;;;;;10.70;7.93;;;;;;;;;;5010166;28;20054;-78
2023/03/29 00:22:38;;;;;;;8.25;5.00;;;;;;;;;;4999790;28;20018;-79
2023/03/29 00:25:04;;;;;;;5.47;5.05;;;;;;;;;;4985099;28;20503;-80
2023/03/29 00:27:29;;;;;;;8.48;5.47;;;;;;;;;;5002584;28;20072;-80
2023/03/29 00:29:55;;;;;;;5.32;4.93;;;;;;;;;;4997274;28;20416;-77
2023/03/29 00:32:21;;;;;;;6.95;4.88;;;;;;;;;;5002497;28;20037;-79
2023/03/29 00:34:49;;;;;;;8.88;6.07;;;;;;;;;;5016058;28;20037;-82
2023/03/29 00:37:15;;;;;;;5.53;5.03;;;;;;;;;;5024489;28;20052;-80
2023/03/29 00:39:40;;;;;;;6.30;5.65;;;;;;;;;;5003602;28;20030;-80
2023/03/29 00:42:09;;;;;;;5.70;5.13;;;;;;;;;;5011879;28;20028;-80
2023/03/29 00:44:53;;;;;;;11.00;6.60;;;;;;;;;;4995872;28;20032;-80
2023/03/29 00:47:21;;;;;;;8.23;6.53;;;;;;;;;;5015718;28;20053;-81
2023/03/29 00:49:48;;;;;;;6.80;6.10;;;;;;;;;;5022877;28;20022;-82
2023/03/29 00:52:14;;;;;;;6.68;6.07;;;;;;;;;;5174469;23;20041;-81
2023/03/29 00:54:42;;;;;;;5.90;4.97;;;;;;;;;;5003094;28;20009;-81
2023/03/29 00:57:08;;;;;;;5.78;5.03;;;;;;;;;;5012697;28;20005;-81
2023/03/29 01:15:34;;;;;;;6.45;5.85;;;;;;;;;;5515770;23;20053;-83
2023/03/29 01:54:18;;;;;;;6.95;5.35;;;;;;;;;;5060445;23;20077;-83
2023/03/29 01:56:44;;;;;;;7.95;5.18;;;;;;;;;;5038416;28;20044;-81
2023/03/29 02:25:02;;;;;;;6.13;4.55;;;;;;;;;;5322456;23;20105;-82
2023/03/29 02:27:28;;;;;;;6.00;5.28;;;;;;;;;;5047202;28;20002;-81
2023/03/29 02:29:54;;;;;;;6.10;5.60;;;;;;;;;;5058367;28;20021;-81
2023/03/29 02:32:21;;;;;;;6.20;5.70;;;;;;;;;;5057537;28;20479;-81
2023/03/29 02:34:55;;;;;;;5.72;4.88;;;;;;;;;;5040550;28;20033;-81
2023/03/29 02:37:23;;;;;;;6.30;4.68;;;;;;;;;;5040764;28;20014;-81
2023/03/29 02:39:50;;;;;;;4.80;4.35;;;;;;;;;;5040586;28;20025;-81
2023/03/29 02:42:18;;;;;;;8.65;5.10;;;;;;;;;;5057111;28;20026;-81
2023/03/29 02:44:45;;;;;;;5.03;4.60;;;;;;;;;;5039358;28;20067;-82
2023/03/29 02:47:30;;;;;;;7.95;5.05;;;;;;;;;;5040747;28;20021;-82
2023/03/29 02:49:55;;;;;;;4.72;4.32;;;;;;;;;;5040439;28;20008;-81
2023/03/29 02:52:22;;;;;;;6.22;4.80;;;;;;;;;;5040800;28;20049;-81
2023/03/29 02:54:50;;;;;;;4.80;4.40;;;;;;;;;;5056857;28;20013;-81
2023/03/29 02:57:16;;;;;;;5.47;4.97;;;;;;;;;;5049721;28;20017;-80
2023/03/29 02:59:43;;;;;;;4.93;4.55;;;;;;;;;;5047050;28;20053;-81
2023/03/29 03:02:10;;;;;;;5.40;5.00;;;;;;;;;;5053911;28;20025;-81
2023/03/29 03:04:36;;;;;;;6.90;5.18;;;;;;;;;;5030432;28;20095;-79
2023/03/29 03:07:03;;;;;;;9.48;4.95;;;;;;;;;;5012667;28;20045;-79
2023/03/29 03:09:29;;;;;;;5.30;4.80;;;;;;;;;;5028306;28;20018;-78
2023/03/29 03:11:54;;;;;;;8.00;4.53;;;;;;;;;;5025762;28;20033;-79
2023/03/29 03:14:21;;;;;;;5.30;4.72;;;;;;;;;;5025369;28;20014;-78
2023/03/29 03:16:47;;;;;;;5.10;4.60;;;;;;;;;;5025022;28;20025;-78
2023/03/29 03:19:13;;;;;;;10.63;4.88;;;;;;;;;;5025142;28;20045;-79
2023/03/29 03:21:38;;;;;;;6.45;5.30;;;;;;;;;;5024360;28;20783;-78
2023/03/29 03:24:04;;;;;;;8.25;5.03;;;;;;;;;;5004109;28;20049;-79
2023/03/29 03:26:29;;;;;;;5.88;5.38;;;;;;;;;;5014468;28;20042;-78
2023/03/29 03:28:55;;;;;;;5.65;5.15;;;;;;;;;;5024832;28;20468;-78
2023/03/29 03:31:21;;;;;;;5.60;5.10;;;;;;;;;;5024565;28;20053;-78
2023/03/29 03:33:47;;;;;;;7.57;4.88;;;;;;;;;;5022428;28;20026;-78
2023/03/29 03:36:12;;;;;;;5.32;4.82;;;;;;;;;;5005285;28;20029;-78
2023/03/29 03:38:38;;;;;;;5.68;5.20;;;;;;;;;;5013636;28;20041;-78
2023/03/29 03:41:03;;;;;;;7.28;5.18;;;;;;;;;;5008575;28;20022;-78
2023/03/29 03:43:29;;;;;;;5.22;4.80;;;;;;;;;;5023274;28;20569;-78
2023/03/29 03:45:55;;;;;;;5.85;5.22;;;;;;;;;;5022190;28;20075;-78
2023/03/29 03:48:21;;;;;;;5.85;5.35;;;;;;;;;;5001397;28;20025;-78
2023/03/29 03:50:50;;;;;;;6.82;5.47;;;;;;;;;;5022139;28;20033;-78
2023/03/29 03:53:15;;;;;;;5.85;5.40;;;;;;;;;;5023389;28;20087;-78
2023/03/29 03:55:41;;;;;;;6.05;5.45;;;;;;;;;;5046847;28;20009;-81
2023/03/29 03:58:07;;;;;;;6.10;5.50;;;;;;;;;;5057931;28;20010;-84
2023/03/29 04:00:32;;;;;;;6.57;5.47;;;;;;;;;;5057647;28;20048;-82
2023/03/29 04:02:57;;;;;;;6.30;5.60;;;;;;;;;;5057168;28;20064;-82
2023/03/29 04:05:23;;;;;;;7.20;5.65;;;;;;;;;;5027462;28;20038;-79
2023/03/29 04:07:48;;;;;;;5.68;5.20;;;;;;;;;;5024609;28;20026;-78
2023/03/29 04:10:14;;;;;;;6.05;5.20;;;;;;;;;;5024079;28;20100;-78
2023/03/29 04:12:40;;;;;;;5.80;4.95;;;;;;;;;;5024142;28;20104;-79
2023/03/29 04:15:07;;;;;;;5.88;5.38;;;;;;;;;;5024193;28;20077;-78
2023/03/29 04:17:32;;;;;;;5.60;5.18;;;;;;;;;;5018322;28;20021;-79
2023/03/29 04:20:00;;;;;;;5.25;4.85;;;;;;;;;;5024836;28;20518;-79
2023/03/29 04:22:25;;;;;;;6.13;5.55;;;;;;;;;;5025258;28;20047;-79
2023/03/29 04:24:50;;;;;;;5.93;5.25;;;;;;;;;;5006115;28;20061;-77
2023/03/29 04:27:16;;;;;;;5.35;4.95;;;;;;;;;;5002916;28;20037;-77
2023/03/29 04:29:43;;;;;;;6.13;5.25;;;;;;;;;;5002601;28;20836;-78
2023/03/29 04:32:09;;;;;;;6.63;4.95;;;;;;;;;;5001979;28;20458;-78
2023/03/29 04:34:34;;;;;;;5.68;5.28;;;;;;;;;;4997360;28;20018;-77
2023/03/29 04:36:59;;;;;;;41.75;21.50;;;;;;;;;;5000435;28;20658;-77
2023/03/29 04:39:31;;;;;;;8.52;7.63;;;;;;;;;;4997040;28;20049;-77
2023/03/29 04:41:57;;;;;;;6.90;6.30;;;;;;;;;;5001710;28;20018;-77
2023/03/29 04:44:22;;;;;;;5.88;5.25;;;;;;;;;;4987139;28;20540;-77
2023/03/29 04:46:47;;;;;;;6.50;4.85;;;;;;;;;;5004695;28;20063;-77
2023/03/29 04:49:13;;;;;;;7.00;5.20;;;;;;;;;;5012767;28;20022;-77
2023/03/29 04:51:38;;;;;;;8.38;7.45;;;;;;;;;;5002374;28;20018;-77
2023/03/29 04:54:03;;;;;;;10.77;6.75;;;;;;;;;;4994858;28;20853;-78
2023/03/29 04:56:29;;;;;;;6.28;5.43;;;;;;;;;;4995390;28;20022;-81
2023/03/29 04:58:55;;;;;;;7.35;6.45;;;;;;;;;;5000846;28;20478;-78
2023/03/29 05:01:20;;;;;;;8.23;5.60;;;;;;;;;;5002064;28;20033;-80
2023/03/29 05:03:45;;;;;;;4.60;4.18;;;;;;;;;;4999546;28;20467;-80
2023/03/29 05:06:11;;;;;;;3.33;3.03;;;;;;;;;;4995128;28;20034;-79
2023/03/29 05:08:38;;;;;;;3.25;2.55;;;;;;;;;;4990904;28;20026;-80
2023/03/29 05:11:05;;;;;;;3.10;2.90;;;;;;;;;;5016207;28;20028;-80
2023/03/29 05:13:30;;;;;;;4.15;2.97;;;;;;;;;;5008084;28;20022;-80
2023/03/29 05:15:56;;;;;;;3.25;3.00;;;;;;;;;;5010523;28;20026;-80
2023/03/29 05:18:21;;;;;;;3.42;3.13;;;;;;;;;;5018518;28;20029;-81
2023/03/29 05:20:46;;;;;;;4.60;3.03;;;;;;;;;;5037263;28;20089;-83
2023/03/29 05:23:12;;;;;;;3.10;2.78;;;;;;;;;;5530139;23;20296;-80
2023/03/29 05:28:12;;;;;;;3.80;3.40;;;;;;;;;;5899604;23;20049;-81
2023/03/29 05:43:33;;;;;;;3.38;3.05;;;;;;;;;;5671229;23;20058;-82
2023/03/29 05:45:58;;;;;;;5.85;3.40;;;;;;;;;;4983508;28;20033;-81
2023/03/29 05:48:24;;;;;;;4.10;3.70;;;;;;;;;;5414900;23;20081;-82
2023/03/29 05:50:51;;;;;;;6.88;3.08;;;;;;;;;;5056220;28;20002;-80
2023/03/29 05:53:16;;;;;;;6.80;3.72;;;;;;;;;;5047512;28;20053;-80
2023/03/29 05:55:42;;;;;;;5.45;3.20;;;;;;;;;;5048037;28;20008;-78
2023/03/29 05:58:09;;;;;;;2.88;2.38;;;;;;;;;;5040690;28;20036;-79
2023/03/29 06:00:36;;;;;;;3.15;2.67;;;;;;;;;;5038581;28;20014;-79
2023/03/29 06:03:02;;;;;;;3.10;1.80;;;;;;;;;;5014756;28;20029;-79
2023/03/29 06:05:27;;;;;;;2.90;2.00;;;;;;;;;;5028245;28;20101;-80
2023/03/29 06:07:53;;;;;;;2.45;1.83;;;;;;;;;;5004473;28;20026;-80
2023/03/29 06:10:19;;;;;;;2.50;2.00;;;;;;;;;;5015878;28;20023;-78
2023/03/29 06:12:45;;;;;;;4.88;1.92;;;;;;;;;;5009289;28;20026;-75
2023/03/29 06:15:12;;;;;;;6.05;1.70;;;;;;;;;;5006192;28;20013;-78
2023/03/29 06:17:38;;;;;;;2.15;1.60;;;;;;;;;;4996364;28;20916;-79
2023/03/29 06:20:09;;;;;;;2.38;1.60;;;;;;;;;;5019707;28;20104;-76
2023/03/29 06:22:34;;;;;;;3.90;1.70;;;;;;;;;;5021765;28;20021;-76
2023/03/29 06:25:00;;;;;;;2.72;2.38;;;;;;;;;;5040695;28;20028;-78
2023/03/29 06:27:25;;;;;;;1.95;1.50;;;;;;;;;;5028592;28;20549;-78
2023/03/29 06:29:51;;;;;;;2.40;1.50;;;;;;;;;;5014918;28;20037;-77
2023/03/29 06:32:16;;;;;;;2.08;1.77;;;;;;;;;;5021719;28;20791;-78
2023/03/29 06:34:42;;;;;;;1.83;1.60;;;;;;;;;;5033549;28;20026;-79
2023/03/29 06:37:07;;;;;;;3.60;1.90;;;;;;;;;;5032528;28;20041;-78
2023/03/29 06:39:32;;;;;;;5.35;2.38;;;;;;;;;;5004958;28;20025;-77
2023/03/29 06:41:58;;;;;;;2.50;2.30;;;;;;;;;;5000409;28;20049;-77
2023/03/29 06:44:24;;;;;;;2.70;1.98;;;;;;;;;;5010856;28;20030;-77
2023/03/29 06:46:49;;;;;;;2.60;2.00;;;;;;;;;;5015534;28;20029;-75
2023/03/29 06:49:15;;;;;;;2.40;2.20;;;;;;;;;;5018436;28;20052;-76
2023/03/29 06:51:40;;;;;;;2.47;2.27;;;;;;;;;;5006142;28;20033;-77
2023/03/29 06:54:09;;;;;;;4.57;1.90;;;;;;;;;;5001282;28;20913;-76
2023/03/29 06:56:34;;;;;;;3.00;1.95;;;;;;;;;;5014806;28;20059;-76
2023/03/29 06:58:59;;;;;;;2.10;1.50;;;;;;;;;;4997197;28;20057;-76
2023/03/29 07:01:25;;;;;;;2.22;1.85;;;;;;;;;;5019303;28;20037;-76
2023/03/29 07:03:51;;;;;;;2.17;1.90;;;;;;;;;;4994777;28;20029;-75
2023/03/29 07:06:19;;;;;;;2.08;1.77;;;;;;;;;;5013203;28;20426;-75
2023/03/29 07:08:46;;;;;;;2.63;2.35;;;;;;;;;;5024080;28;20021;-75
2023/03/29 07:11:13;;;;;;;1.83;1.73;;;;;;;;;;5020599;28;20479;-76
2023/03/29 07:13:39;;;;;;;2.10;1.90;;;;;;;;;;5035478;28;20083;-74
2023/03/29 07:16:04;;;;;;;2.55;1.80;;;;;;;;;;5033962;28;20017;-77
2023/03/29 07:18:30;;;;;;;5.82;2.00;;;;;;;;;;5009352;28;20408;-76
2023/03/29 07:20:56;;;;;;;2.40;1.92;;;;;;;;;;5015425;28;20104;-75
2023/03/29 07:23:21;;;;;;;2.65;1.75;;;;;;;;;;5012419;28;20025;-76
2023/03/29 07:25:46;;;;;;;2.80;1.50;;;;;;;;;;5014864;28;20124;-76
2023/03/29 07:28:12;;;;;;;3.65;1.63;;;;;;;;;;5015244;28;20021;-75
2023/03/29 07:30:37;;;;;;;2.05;1.55;;;;;;;;;;5000884;28;20040;-74
2023/03/29 07:33:03;;;;;;;2.80;1.27;;;;;;;;;;5021424;28;20018;-77
2023/03/29 07:35:29;;;;;;;4.30;1.38;;;;;;;;;;5017627;28;20022;-77
2023/03/29 07:37:54;;;;;;;2.72;1.27;;;;;;;;;;5014884;28;20167;-76
2023/03/29 07:40:22;;;;;;;5.70;1.60;;;;;;;;;;4993147;28;20097;-76
2023/03/29 07:42:54;;;;;;;2.40;1.35;;;;;;;;;;5017792;28;20027;-78
2023/03/29 07:45:20;;;;;;;2.88;1.48;;;;;;;;;;5000462;28;20128;-79
2023/03/29 07:47:47;;;;;;;3.50;1.48;;;;;;;;;;5024189;28;20061;-79
2023/03/29 07:50:13;;;;;;;1.58;1.48;;;;;;;;;;5014116;28;20026;-80
2023/03/29 07:52:39;;;;;;;1.95;1.40;;;;;;;;;;5015113;28;20052;-78
2023/03/29 07:55:05;;;;;;;1.73;1.50;;;;;;;;;;5021009;28;20074;-77
2023/03/29 07:57:31;;;;;;;2.05;1.38;;;;;;;;;;5020740;28;20017;-77
2023/03/29 07:59:57;;;;;;;3.10;1.15;;;;;;;;;;5026763;28;20032;-78
2023/03/29 08:02:22;;;;;;;3.85;1.63;;;;;;;;;;5018901;28;20030;-77
2023/03/29 08:04:48;;;;;;;3.25;1.42;;;;;;;;;;5017738;28;20029;-78
2023/03/29 08:07:14;;;;;;;2.63;1.45;;;;;;;;;;5018296;28;20443;-79
2023/03/29 08:09:40;;;;;;;1.33;1.00;;;;;;;;;;5016434;28;20036;-78
2023/03/29 08:12:05;;;;;;;1.73;1.00;;;;;;;;;;5045534;28;20070;-79
2023/03/29 08:14:30;;;;;;;3.90;1.27;;;;;;;;;;5043298;28;20466;-78
2023/03/29 08:16:56;;;;;;;1.80;1.00;;;;;;;;;;5032154;28;20045;-77
2023/03/29 08:19:21;;;;;;;2.08;1.02;;;;;;;;;;5043176;28;20028;-80
2023/03/29 08:21:47;;;;;;;2.70;1.08;;;;;;;;;;4999850;28;20033;-80
2023/03/29 08:24:12;;;;;;;2.08;1.05;;;;;;;;;;5032571;28;20063;-78
2023/03/29 08:26:38;;;;;;;4.18;1.30;;;;;;;;;;5039946;28;20107;-77
2023/03/29 08:29:03;;;;;;;1.60;1.33;;;;;;;;;;5017655;28;20148;-78
2023/03/29 08:31:28;;;;;;;3.13;1.08;;;;;;;;;;5016790;28;20025;-78
2023/03/29 08:33:53;;;;;;;14.00;1.27;;;;;;;;;;5021251;28;20084;-77
2023/03/29 08:36:19;;;;;;;2.38;1.13;;;;;;;;;;5021353;28;20565;-76
2023/03/29 08:38:44;;;;;;;2.83;1.10;;;;;;;;;;5017732;28;20032;-77
2023/03/29 08:41:24;;;;;;;1.65;1.35;;;;;;;;;;5017801;28;20049;-79
2023/03/29 08:43:49;;;;;;;;;;;;;;;;;;5002994;28;20026;-78
2023/03/29 08:46:30;;;;;;;5.65;1.35;;;;;;;;;;5036423;28;20034;-79
2023/03/29 08:48:58;;;;;;;2.67;1.25;;;;;;;;;;5011800;28;20473;-81
2023/03/29 08:51:26;;;;;;;2.30;1.20;;;;;;;;;;5037792;28;20014;-80
2023/03/29 08:53:55;;;;;;;1.08;0.98;;;;;;;;;;5020355;28;20057;-80
2023/03/29 08:56:23;;;;;;;2.87;1.10;;;;;;;;;;4998460;28;20479;-77
2023/03/29 08:58:50;;;;;;;2.03;0.95;;;;;;;;;;5014603;28;20746;-76
2023/03/29 09:01:15;;;;;;;3.03;1.25;;;;;;;;;;5011899;28;20075;-79
2023/03/29 09:03:44;;;;;;;1.95;0.90;;;;;;;;;;5028644;28;20029;-79
2023/03/29 09:06:11;;;;;;;2.42;1.40;;;;;;;;;;5025595;28;20024;-80
2023/03/29 09:08:42;;;;;;;2.83;1.10;;;;;;;;;;5048632;28;20009;-78
2023/03/29 09:11:16;;;;;;;1.80;1.10;;;;;;;;;;5032621;28;20029;-77
2023/03/29 09:13:48;;;;;;;3.15;1.08;;;;;;;;;;5014920;28;20022;-76
2023/03/29 09:16:21;;;;;;;3.15;0.98;;;;;;;;;;5041011;28;20825;-79
2023/03/29 09:18:52;;;;;;;1.45;1.10;;;;;;;;;;5035865;28;20547;-76
2023/03/29 09:21:24;;;;;;;1.17;0.93;;;;;;;;;;5035430;28;20017;-77
2023/03/29 09:24:08;;;;;;;11.48;1.33;;;;;;;;;;5045587;28;20112;-76
2023/03/29 09:26:37;;;;;;;1.33;0.90;;;;;;;;;;5037806;28;20444;-77
2023/03/29 09:29:15;;;;;;;1.50;0.93;;;;;;;;;;5010028;28;20021;-76
2023/03/29 09:31:42;;;;;;;1.33;0.93;;;;;;;;;;5021357;28;20112;-77
2023/03/29 09:34:12;;;;;;;3.10;1.35;;;;;;;;;;5000350;28;20053;-75
2023/03/29 09:36:50;;;;;;;1.45;1.00;;;;;;;;;;5014664;28;20026;-77
2023/03/29 09:39:15;;;;;;;2.50;1.08;;;;;;;;;;5035966;28;20037;-76
2023/03/29 09:41:56;;;;;;;2.15;1.17;;;;;;;;;;4991978;28;20030;-79
2023/03/29 09:44:22;;;;;;;2.25;1.00;;;;;;;;;;5024551;28;20014;-77
2023/03/29 09:46:52;;;;;;;3.70;1.55;;;;;;;;;;5028361;28;20498;-77
2023/03/29 09:49:24;;;;;;;0.82;0.75;;;;;;;;;;5029147;28;20042;-76
2023/03/29 09:51:50;;;;;;;1.60;1.10;;;;;;;;;;5024244;28;20117;-77
2023/03/29 09:54:15;;;;;;;1.95;1.23;;;;;;;;;;5003709;28;20522;-77
2023/03/29 09:56:41;;;;;;;1.50;1.10;;;;;;;;;;5005625;28;20026;-77
2023/03/29 09:59:09;;;;;;;2.67;1.88;;;;;;;;;;5022726;28;20022;-76
2023/03/29 10:01:40;;;;;;;1.63;1.02;;;;;;;;;;5023498;28;20029;-76
2023/03/29 10:04:06;;;;;;;2.30;0.98;;;;;;;;;;5024610;28;20025;-77
2023/03/29 10:06:33;;;;;;;4.35;1.10;;;;;;;;;;5024402;28;20783;-76
2023/03/29 10:08:58;;;;;;;3.72;1.52;;;;;;;;;;5026515;28;20053;-77
2023/03/29 10:11:31;;;;;;;2.08;0.90;;;;;;;;;;5018907;28;20609;-78
2023/03/29 10:14:11;;;;;;;2.60;1.20;;;;;;;;;;5017852;28;20040;-75
2023/03/29 10:16:37;;;;;;;2.88;0.90;;;;;;;;;;5017685;28;20025;-76
2023/03/29 10:19:22;;;;;;;1.92;1.38;;;;;;;;;;5022649;28;20048;-77
2023/03/29 10:21:51;;;;;;;1.83;0.95;;;;;;;;;;5003548;28;20388;-77
2023/03/29 10:24:21;;;;;;;3.17;1.00;;;;;;;;;;5017805;28;20028;-76
2023/03/29 10:26:46;;;;;;;2.10;0.73;;;;;;;;;;5019367;28;20049;-76
2023/03/29 10:29:12;;;;;;;1.55;1.05;;;;;;;;;;5016510;28;20033;-77
2023/03/29 10:31:41;;;;;;;1.23;0.80;;;;;;;;;;5001857;28;20018;-76
2023/03/29 10:34:07;;;;;;;1.42;0.73;;;;;;;;;;5015245;28;20849;-77
2023/03/29 10:36:33;;;;;;;1.15;1.00;;;;;;;;;;4995463;28;20033;-77
2023/03/29 10:39:00;;;;;;;3.47;1.50;;;;;;;;;;5021270;28;20402;-77
2023/03/29 10:41:29;;;;;;;1.95;1.20;;;;;;;;;;5012172;28;20088;-76
2023/03/29 10:43:54;;;;;;;2.70;0.95;;;;;;;;;;4996514;28;20025;-76
2023/03/29 10:46:21;;;;;;;1.20;0.70;;;;;;;;;;5005150;28;20834;-76
2023/03/29 10:48:57;;;;;;;2.53;1.15;;;;;;;;;;5026272;28;20480;-76
2023/03/29 10:51:24;;;;;;;3.55;1.20;;;;;;;;;;5003585;28;20774;-77
2023/03/29 10:53:56;;;;;;;2.10;0.75;;;;;;;;;;5014716;28;20025;-78
2023/03/29 10:56:24;;;;;;;3.17;1.00;;;;;;;;;;4999168;28;20061;-78
2023/03/29 10:59:02;;;;;;;1.98;0.90;;;;;;;;;;5006580;28;20043;-75
2023/03/29 11:01:34;;;;;;;1.98;1.20;;;;;;;;;;5020950;28;20552;-79
2023/03/29 11:04:05;;;;;;;3.42;0.88;;;;;;;;;;5005410;28;20048;-77
2023/03/29 11:06:36;;;;;;;1.45;0.82;;;;;;;;;;5017267;28;20061;-78
2023/03/29 11:09:06;;;;;;;5.15;1.17;;;;;;;;;;5025503;28;20047;-75
2023/03/29 11:11:31;;;;;;;1.50;0.80;;;;;;;;;;4997394;28;20025;-76
2023/03/29 11:14:06;;;;;;;1.27;1.00;;;;;;;;;;5015859;28;20029;-75
2023/03/29 11:16:43;;;;;;;1.63;1.10;;;;;;;;;;5023922;28;20021;-78
2023/03/29 11:19:08;;;;;;;1.40;1.08;;;;;;;;;;5021223;28;20071;-74
2023/03/29 11:21:40;;;;;;;1.77;1.00;;;;;;;;;;5003742;28;20071;-76
2023/03/29 11:24:05;;;;;;;1.08;0.85;;;;;;;;;;5019967;28;20025;-76
2023/03/29 11:26:40;;;;;;;1.00;0.80;;;;;;;;;;5002346;28;20030;-76
2023/03/29 11:29:06;;;;;;;1.40;1.00;;;;;;;;;;5018713;28;20288;-74
2023/03/29 11:31:50;;;;;;;3.55;1.27;;;;;;;;;;5015301;28;20590;-75
2023/03/29 11:34:28;;;;;;;1.08;0.90;;;;;;;;;;5015272;28;20165;-75
2023/03/29 11:37:04;;;;;;;1.08;0.70;;;;;;;;;;5018613;28;20109;-78
2023/03/29 11:39:39;;;;;;;1.48;0.77;;;;;;;;;;5023922;28;20021;-76
2023/03/29 11:42:16;;;;;;;2.60;1.10;;;;;;;;;;5011962;28;20521;-76
2023/03/29 11:44:42;;;;;;;2.15;0.68;;;;;;;;;;5001245;28;20542;-77
2023/03/29 11:47:10;;;;;;;3.22;1.42;;;;;;;;;;5025122;28;20033;-77
2023/03/29 11:49:39;;;;;;;1.30;0.90;;;;;;;;;;5003005;28;20707;-79
2023/03/29 11:52:10;;;;;;;1.40;0.90;;;;;;;;;;5001765;28;20071;-77
2023/03/29 11:54:40;;;;;;;3.20;1.08;;;;;;;;;;5023575;28;20036;-76
2023/03/29 11:57:11;;;;;;;1.50;0.80;;;;;;;;;;5018214;28;20021;-76
2023/03/29 11:59:39;;;;;;;2.70;1.08;;;;;;;;;;5000426;28;20064;-77
2023/03/29 12:02:28;;;;;;;1.52;0.80;;;;;;;;;;5012466;28;20025;-76
2023/03/29 12:04:54;;;;;;;1.38;1.08;;;;;;;;;;4998057;28;20033;-76
2023/03/29 12:07:26;;;;;;;1.30;0.95;;;;;;;;;;5014363;28;20187;-75
2023/03/29 12:09:58;;;;;;;1.63;1.08;;;;;;;;;;5019653;28;20032;-77
2023/03/29 12:12:26;;;;;;;3.33;1.23;;;;;;;;;;5014826;28;20037;-78
2023/03/29 12:15:12;;;;;;;2.05;1.05;;;;;;;;;;5019977;28;20029;-78
2023/03/29 12:17:46;;;;;;;1.05;0.82;;;;;;;;;;5018402;28;20516;-79
2023/03/29 12:20:22;;;;;;;1.85;1.05;;;;;;;;;;5015707;28;20014;-76
2023/03/29 12:22:49;;;;;;;3.15;1.02;;;;;;;;;;5021043;28;20061;-75
2023/03/29 12:25:17;;;;;;;2.45;1.00;;;;;;;;;;5023653;28;20029;-77
2023/03/29 12:28:02;;;;;;;1.55;0.93;;;;;;;;;;4995398;28;20555;-79
2023/03/29 12:30:27;;;;;;;1.60;0.88;;;;;;;;;;5023953;28;20057;-79
2023/03/29 12:33:07;;;;;;;4.05;0.80;;;;;;;;;;5022476;28;20044;-79
2023/03/29 12:35:52;;;;;;;2.63;1.00;;;;;;;;;;5005904;28;20029;-76
2023/03/29 12:38:23;;;;;;;1.50;0.90;;;;;;;;;;5001039;28;20078;-76
2023/03/29 12:40:59;;;;;;;2.22;1.15;;;;;;;;;;5016972;28;20022;-77
2023/03/29 12:43:24;;;;;;;1.73;1.30;;;;;;;;;;5016092;28;20013;-76
2023/03/29 12:45:54;;;;;;;2.13;1.20;;;;;;;;;;5018623;28;20094;-78
2023/03/29 12:48:22;;;;;;;1.40;0.90;;;;;;;;;;5019783;28;20319;-76
2023/03/29 12:50:50;;;;;;;3.97;1.20;;;;;;;;;;5019367;28;20114;-75
2023/03/29 12:53:18;;;;;;;3.50;0.95;;;;;;;;;;5016687;28;20029;-74
2023/03/29 12:55:43;;;;;;;2.85;1.10;;;;;;;;;;5016858;28;20021;-77
2023/03/29 12:58:20;;;;;;;3.03;1.10;;;;;;;;;;5025807;28;20108;-75
2023/03/29 13:00:46;;;;;;;1.67;1.15;;;;;;;;;;4992706;28;20696;-75
2023/03/29 13:03:28;;;;;;;3.58;1.10;;;;;;;;;;5005774;28;20025;-75
2023/03/29 13:05:58;;;;;;;1.20;0.90;;;;;;;;;;5007583;28;20099;-77
2023/03/29 13:08:33;;;;;;;1.20;1.10;;;;;;;;;;5019679;28;20095;-75
2023/03/29 13:10:58;;;;;;;1.77;1.20;;;;;;;;;;5005344;28;20030;-76
2023/03/29 13:13:29;;;;;;;1.88;1.02;;;;;;;;;;4991731;28;20088;-74
2023/03/29 13:15:55;;;;;;;1.30;0.98;;;;;;;;;;4999504;28;20040;-75
2023/03/29 13:18:38;;;;;;;2.28;1.40;;;;;;;;;;5025450;28;20018;-75
2023/03/29 13:21:13;;;;;;;1.42;1.00;;;;;;;;;;5024367;28;20080;-76
2023/03/29 13:24:01;;;;;;;1.48;0.85;;;;;;;;;;5007899;28;20116;-75
2023/03/29 13:26:37;;;;;;;1.80;1.00;;;;;;;;;;4971518;28;20049;-75
2023/03/29 13:29:06;;;;;;;2.47;0.98;;;;;;;;;;5022243;28;20032;-77
2023/03/29 13:31:45;;;;;;;1.27;0.80;;;;;;;;;;5023324;28;20059;-78
2023/03/29 13:34:26;;;;;;;3.97;0.90;;;;;;;;;;5023883;28;20030;-78
2023/03/29 13:37:03;;;;;;;2.35;1.23;;;;;;;;;;5022991;28;20029;-75
2023/03/29 13:39:35;;;;;;;4.95;0.80;;;;;;;;;;5011351;28;20025;-77
2023/03/29 13:42:22;;;;;;;5.60;1.63;;;;;;;;;;5022555;28;20021;-76
2023/03/29 13:44:48;;;;;;;1.60;1.30;;;;;;;;;;5001636;28;20060;-79
2023/03/29 13:47:31;;;;;;;4.72;1.23;;;;;;;;;;5026879;28;21549;-78
2023/03/29 13:50:04;;;;;;;1.83;1.10;;;;;;;;;;5006671;28;20041;-77
2023/03/29 13:52:32;;;;;;;1.50;0.93;;;;;;;;;;5002693;28;20056;-77
2023/03/29 13:54:57;;;;;;;1.45;0.90;;;;;;;;;;4985950;28;20144;-76
2023/03/29 13:57:24;;;;;;;1.40;1.00;;;;;;;;;;5007471;28;20116;-74
2023/03/29 14:00:10;;;;;;;2.33;0.90;;;;;;;;;;5004397;28;20283;-79
2023/03/29 14:02:57;;;;;;;2.78;0.75;;;;;;;;;;5024837;28;20013;-77
2023/03/29 14:05:37;;;;;;;1.88;0.90;;;;;;;;;;5021605;28;20048;-77
2023/03/29 14:08:21;;;;;;;3.70;1.20;;;;;;;;;;5025206;28;20021;-78
2023/03/29 14:10:47;;;;;;;1.95;1.00;;;;;;;;;;5023896;28;20120;-76
2023/03/29 14:13:13;;;;;;;1.65;1.17;;;;;;;;;;5023602;28;20096;-77
2023/03/29 14:15:44;;;;;;;1.63;0.95;;;;;;;;;;5019048;28;20018;-77
2023/03/29 14:18:10;;;;;;;2.63;1.17;;;;;;;;;;5023607;28;20028;-77
2023/03/29 14:20:36;;;;;;;1.98;0.80;;;;;;;;;;5015869;28;20025;-79
2023/03/29 14:23:08;;;;;;;1.52;0.80;;;;;;;;;;5021315;28;20049;-76
2023/03/29 14:25:35;;;;;;;3.05;1.15;;;;;;;;;;5020882;28;20036;-76
2023/03/29 14:28:01;;;;;;;2.20;0.98;;;;;;;;;;5018484;28;20568;-78
2023/03/29 14:30:27;;;;;;;1.52;0.88;;;;;;;;;;5019974;28;20029;-77
2023/03/29 14:32:53;;;;;;;1.58;1.10;;;;;;;;;;5016240;28;20483;-76
2023/03/29 14:35:19;;;;;;;1.58;0.98;;;;;;;;;;5018240;28;20048;-76
2023/03/29 14:37:45;;;;;;;1.85;1.00;;;;;;;;;;5016504;28;20021;-76
2023/03/29 14:40:18;;;;;;;1.33;1.23;;;;;;;;;;5019364;28;20037;-76
2023/03/29 14:42:44;;;;;;;1.00;0.82;;;;;;;;;;5016726;28;20021;-76
2023/03/29 14:45:11;;;;;;;1.70;1.00;;;;;;;;;;5002056;28;20402;-77
2023/03/29 14:47:39;;;;;;;1.95;1.02;;;;;;;;;;4990070;28;20087;-76
2023/03/29 14:50:04;;;;;;;2.15;0.85;;;;;;;;;;5018587;28;20033;-76
2023/03/29 14:52:30;;;;;;;1.35;0.90;;;;;;;;;;5001555;28;20025;-76
2023/03/29 14:54:58;;;;;;;2.08;0.80;;;;;;;;;;5016982;28;20071;-76
2023/03/29 14:57:25;;;;;;;0.75;0.70;;;;;;;;;;5004343;28;20013;-75
2023/03/29 14:59:57;;;;;;;1.45;0.80;;;;;;;;;;5021346;28;20105;-76
2023/03/29 15:02:25;;;;;;;0.82;0.70;;;;;;;;;;5015396;28;20091;-76
2023/03/29 15:05:14;;;;;;;3.05;0.93;;;;;;;;;;4992049;28;20108;-76
2023/03/29 15:07:41;;;;;;;1.25;0.73;;;;;;;;;;5002175;28;20069;-76
2023/03/29 15:10:07;;;;;;;1.80;0.80;;;;;;;;;;5021711;28;20028;-76
2023/03/29 15:12:33;;;;;;;1.52;0.60;;;;;;;;;;5010610;28;20014;-77
2023/03/29 15:14:58;;;;;;;1.40;0.93;;;;;;;;;;5000865;28;20124;-77
2023/03/29 15:17:40;;;;;;;2.10;0.80;;;;;;;;;;5014809;28;20026;-76
2023/03/29 15:20:11;;;;;;;2.60;0.90;;;;;;;;;;5006332;28;20064;-75
2023/03/29 15:22:38;;;;;;;2.28;0.85;;;;;;;;;;5018912;28;20029;-74
2023/03/29 15:25:08;;;;;;;2.00;1.00;;;;;;;;;;5019793;28;20084;-75
2023/03/29 15:27:42;;;;;;;2.78;0.80;;;;;;;;;;5020778;28;20037;-76
2023/03/29 15:30:10;;;;;;;1.60;0.82;;;;;;;;;;5003467;28;20056;-77
2023/03/29 15:32:37;;;;;;;2.60;1.40;;;;;;;;;;5015764;28;20020;-76
2023/03/29 15:35:04;;;;;;;3.20;0.98;;;;;;;;;;4995008;28;20030;-77
2023/03/29 15:37:29;;;;;;;1.95;1.10;;;;;;;;;;5005292;28;20014;-79
2023/03/29 15:39:55;;;;;;;0.90;0.80;;;;;;;;;;5020505;28;20033;-79
2023/03/29 15:42:21;;;;;;;3.92;0.90;;;;;;;;;;5024673;28;20029;-76
2023/03/29 15:44:46;;;;;;;1.75;0.93;;;;;;;;;;5010046;28;20021;-79
2023/03/29 15:47:12;;;;;;;2.20;1.00;;;;;;;;;;4998767;28;20029;-76
2023/03/29 15:49:37;;;;;;;2.03;1.00;;;;;;;;;;4994614;28;20050;-76
2023/03/29 15:52:02;;;;;;;2.08;0.95;;;;;;;;;;4989635;28;20030;-78
2023/03/29 15:54:29;;;;;;;1.95;1.02;;;;;;;;;;5014950;28;20021;-76
2023/03/29 15:57:05;;;;;;;4.10;1.73;;;;;;;;;;5019376;28;20425;-78
2023/03/29 15:59:30;;;;;;;1.58;1.10;;;;;;;;;;5022877;28;20013;-79
2023/03/29 16:01:57;;;;;;;1.33;0.80;;;;;;;;;;5023015;28;20446;-78
2023/03/29 16:04:22;;;;;;;2.05;0.95;;;;;;;;;;5020400;28;20906;-78
2023/03/29 16:06:49;;;;;;;3.92;3.30;;;;;;;;;;5021028;28;20033;-77
2023/03/29 16:09:16;;;;;;;2.53;1.10;;;;;;;;;;5016995;28;20056;-78
2023/03/29 16:11:42;;;;;;;2.97;1.30;;;;;;;;;;5007034;28;20021;-77
2023/03/29 16:14:29;;;;;;;1.48;1.00;;;;;;;;;;5020518;28;20033;-78
2023/03/29 16:16:54;;;;;;;1.90;0.98;;;;;;;;;;5017508;28;20029;-79
2023/03/29 16:19:20;;;;;;;1.88;0.90;;;;;;;;;;5014833;28;20013;-79
2023/03/29 16:21:47;;;;;;;3.38;1.05;;;;;;;;;;5021233;28;20140;-79
2023/03/29 16:24:13;;;;;;;2.03;1.20;;;;;;;;;;4995899;28;20033;-77